Marshville, North Carolina
Current Conditions -  °F | °C
As of 7:53 AM on Thursday 30 Oct 2014 (Local Time) from KEQY Reporting Station
Clear Clear  
Wind Chill: 50°   Ceiling: Unl
Heat Index: 50°   Visibility: 10mi
Dew Point: 42°   Wind: 5mph
Humidity: 74%   Direction: 360°N
Pressure: 30.05"   Gusts: NA
Location:  34.99°N, 80.37°W
Report Text: KEQY 301153Z AUTO 36004KT 10SM CLR 10/06 A3005 RMK AO2 SLP182 T01000056 10144 20100 51012
Loading
Personal Weather Stations






























Interactive Weather Map New forecast layout! Learn more

10-Day Weather Forecast

Advertisements
Track Severe Weather on mobile